sensor_id;sensor_type;location;lat;lon;timestamp;P1;durP1;ratioP1;P2;durP2;ratioP2
13075;SDS011;6604;52.484;13.330;2022-09-09T07:48:29;5.20;;;3.07;;
13075;SDS011;6604;52.484;13.330;2022-09-09T07:51:05;17.03;;;5.47;;
13075;SDS011;6604;52.484;13.330;2022-09-09T07:53:32;9.03;;;3.50;;
13075;SDS011;6604;52.484;13.330;2022-09-09T07:56:02;4.40;;;3.00;;
13075;SDS011;6604;52.484;13.330;2022-09-09T07:58:28;6.60;;;2.63;;
13075;SDS011;6604;52.484;13.330;2022-09-09T08:00:54;5.17;;;2.87;;
13075;SDS011;6604;52.484;13.330;2022-09-09T08:03:22;3.63;;;2.30;;
13075;SDS011;6604;52.484;13.330;2022-09-09T08:05:50;3.70;;;2.50;;
13075;SDS011;6604;52.484;13.330;2022-09-09T08:08:16;18.77;;;4.90;;
13075;SDS011;6604;52.484;13.330;2022-09-09T08:10:43;12.47;;;3.93;;
13075;SDS011;6604;52.484;13.330;2022-09-09T08:13:09;13.97;;;3.60;;
13075;SDS011;6604;52.484;13.330;2022-09-09T08:15:36;8.13;;;3.10;;
13075;SDS011;6604;52.484;13.330;2022-09-09T08:18:02;11.73;;;5.07;;
13075;SDS011;6604;52.484;13.330;2022-09-09T08:20:29;6.00;;;4.20;;
13075;SDS011;6604;52.484;13.330;2022-09-09T08:22:57;4.80;;;2.87;;
13075;SDS011;6604;52.484;13.330;2022-09-09T08:25:24;2.60;;;2.10;;
13075;SDS011;6604;52.484;13.330;2022-09-09T08:27:50;8.40;;;2.57;;
13075;SDS011;6604;52.484;13.330;2022-09-09T08:30:18;4.90;;;2.40;;
13075;SDS011;6604;52.484;13.330;2022-09-09T08:32:45;7.77;;;3.50;;
13075;SDS011;6604;52.484;13.330;2022-09-09T08:35:12;3.43;;;2.30;;
13075;SDS011;6604;52.484;13.330;2022-09-09T08:37:38;5.47;;;2.50;;
13075;SDS011;6604;52.484;13.330;2022-09-09T08:40:07;4.63;;;2.40;;
13075;SDS011;6604;52.484;13.330;2022-09-09T08:42:38;3.83;;;2.13;;
13075;SDS011;6604;52.484;13.330;2022-09-09T08:45:19;2.63;;;2.30;;
13075;SDS011;6604;52.484;13.330;2022-09-09T08:47:51;5.47;;;2.67;;
13075;SDS011;6604;52.484;13.330;2022-09-09T08:50:21;3.50;;;2.23;;
13075;SDS011;6604;52.484;13.330;2022-09-09T08:52:51;4.37;;;2.20;;
13075;SDS011;6604;52.484;13.330;2022-09-09T08:55:23;7.50;;;2.17;;
13075;SDS011;6604;52.484;13.330;2022-09-09T08:57:51;4.17;;;2.30;;
13075;SDS011;6604;52.484;13.330;2022-09-09T09:00:18;4.47;;;2.00;;
13075;SDS011;6604;52.484;13.330;2022-09-09T09:02:46;11.50;;;6.73;;
13075;SDS011;6604;52.484;13.330;2022-09-09T09:05:17;8.23;;;5.93;;
13075;SDS011;6604;52.484;13.330;2022-09-09T09:07:49;5.43;;;4.43;;
13075;SDS011;6604;52.484;13.330;2022-09-09T09:10:20;8.90;;;3.03;;
13075;SDS011;6604;52.484;13.330;2022-09-09T09:12:52;3.20;;;2.33;;
13075;SDS011;6604;52.484;13.330;2022-09-09T09:15:21;5.10;;;1.97;;
13075;SDS011;6604;52.484;13.330;2022-09-09T09:17:49;4.40;;;3.13;;
13075;SDS011;6604;52.484;13.330;2022-09-09T09:20:16;11.50;;;2.50;;
13075;SDS011;6604;52.484;13.330;2022-09-09T09:22:45;14.10;;;2.80;;
13075;SDS011;6604;52.484;13.330;2022-09-09T09:25:14;4.27;;;2.10;;
13075;SDS011;6604;52.484;13.330;2022-09-09T09:27:43;19.63;;;3.17;;
13075;SDS011;6604;52.484;13.330;2022-09-09T09:30:15;8.30;;;2.50;;
13075;SDS011;6604;52.484;13.330;2022-09-09T09:32:43;11.00;;;2.90;;
13075;SDS011;6604;52.484;13.330;2022-09-09T09:35:11;17.07;;;3.83;;
13075;SDS011;6604;52.484;13.330;2022-09-09T09:37:39;6.07;;;2.50;;
13075;SDS011;6604;52.484;13.330;2022-09-09T09:40:09;5.50;;;2.47;;
13075;SDS011;6604;52.484;13.330;2022-09-09T09:42:36;3.07;;;1.63;;
13075;SDS011;6604;52.484;13.330;2022-09-09T09:45:16;3.83;;;2.80;;
13075;SDS011;6604;52.484;13.330;2022-09-09T09:47:43;4.30;;;2.20;;
13075;SDS011;6604;52.484;13.330;2022-09-09T09:50:15;5.07;;;1.90;;
13075;SDS011;6604;52.484;13.330;2022-09-09T09:52:42;3.93;;;2.00;;
13075;SDS011;6604;52.484;13.330;2022-09-09T09:55:11;3.67;;;1.80;;
13075;SDS011;6604;52.484;13.330;2022-09-09T09:57:39;3.20;;;2.90;;
13075;SDS011;6604;52.484;13.330;2022-09-09T10:00:12;4.00;;;2.10;;
13075;SDS011;6604;52.484;13.330;2022-09-09T10:02:41;2.53;;;1.97;;
13075;SDS011;6604;52.484;13.330;2022-09-09T10:05:13;2.80;;;1.90;;
13075;SDS011;6604;52.484;13.330;2022-09-09T10:07:39;5.37;;;1.70;;
13075;SDS011;6604;52.484;13.330;2022-09-09T10:10:08;3.00;;;1.83;;
13075;SDS011;6604;52.484;13.330;2022-09-09T10:12:41;4.63;;;1.73;;
13075;SDS011;6604;52.484;13.330;2022-09-09T10:15:14;3.97;;;2.10;;
13075;SDS011;6604;52.484;13.330;2022-09-09T10:17:47;2.47;;;1.77;;
13075;SDS011;6604;52.484;13.330;2022-09-09T10:20:20;4.07;;;1.50;;
13075;SDS011;6604;52.484;13.330;2022-09-09T10:22:49;1.80;;;1.53;;
13075;SDS011;6604;52.484;13.330;2022-09-09T10:25:20;4.23;;;1.83;;
13075;SDS011;6604;52.484;13.330;2022-09-09T10:27:51;2.70;;;1.50;;
13075;SDS011;6604;52.484;13.330;2022-09-09T10:30:20;2.27;;;1.77;;
13075;SDS011;6604;52.484;13.330;2022-09-09T10:32:49;2.77;;;1.70;;
13075;SDS011;6604;52.484;13.330;2022-09-09T10:35:24;4.17;;;1.80;;
13075;SDS011;6604;52.484;13.330;2022-09-09T10:37:54;4.70;;;1.70;;
13075;SDS011;6604;52.484;13.330;2022-09-09T10:40:27;3.03;;;1.60;;
13075;SDS011;6604;52.484;13.330;2022-09-09T10:42:59;4.43;;;1.90;;
13075;SDS011;6604;52.484;13.330;2022-09-09T10:45:28;3.17;;;1.80;;
13075;SDS011;6604;52.484;13.330;2022-09-09T10:48:07;4.17;;;1.60;;
13075;SDS011;6604;52.484;13.330;2022-09-09T10:50:50;5.17;;;1.70;;
13075;SDS011;6604;52.484;13.330;2022-09-09T10:53:19;3.13;;;1.70;;
13075;SDS011;6604;52.484;13.330;2022-09-09T10:55:50;1.80;;;1.50;;
13075;SDS011;6604;52.484;13.330;2022-09-09T10:58:19;2.40;;;1.43;;
13075;SDS011;6604;52.484;13.330;2022-09-09T11:00:47;4.13;;;1.60;;
13075;SDS011;6604;52.484;13.330;2022-09-09T11:03:17;4.57;;;1.83;;
13075;SDS011;6604;52.484;13.330;2022-09-09T11:05:46;2.60;;;1.60;;
13075;SDS011;6604;52.484;13.330;2022-09-09T11:08:15;2.60;;;1.80;;
13075;SDS011;6604;52.484;13.330;2022-09-09T11:10:44;4.87;;;1.80;;
13075;SDS011;6604;52.484;13.330;2022-09-09T11:13:14;2.87;;;1.83;;
13075;SDS011;6604;52.484;13.330;2022-09-09T11:15:43;3.60;;;1.93;;
13075;SDS011;6604;52.484;13.330;2022-09-09T11:18:11;5.00;;;1.93;;
13075;SDS011;6604;52.484;13.330;2022-09-09T11:20:40;2.87;;;1.60;;
13075;SDS011;6604;52.484;13.330;2022-09-09T11:23:09;2.83;;;2.00;;
13075;SDS011;6604;52.484;13.330;2022-09-09T11:25:38;2.33;;;1.27;;
13075;SDS011;6604;52.484;13.330;2022-09-09T11:28:12;2.60;;;1.17;;
13075;SDS011;6604;52.484;13.330;2022-09-09T11:30:44;3.27;;;1.20;;
13075;SDS011;6604;52.484;13.330;2022-09-09T11:33:18;3.60;;;1.47;;
13075;SDS011;6604;52.484;13.330;2022-09-09T11:35:56;1.77;;;1.20;;
13075;SDS011;6604;52.484;13.330;2022-09-09T11:38:26;1.90;;;1.00;;
13075;SDS011;6604;52.484;13.330;2022-09-09T11:40:56;4.87;;;1.33;;
13075;SDS011;6604;52.484;13.330;2022-09-09T11:43:25;5.37;;;1.67;;
13075;SDS011;6604;52.484;13.330;2022-09-09T11:45:53;1.67;;;1.17;;
13075;SDS011;6604;52.484;13.330;2022-09-09T11:48:23;1.60;;;1.27;;
13075;SDS011;6604;52.484;13.330;2022-09-09T11:50:58;2.13;;;1.27;;
13075;SDS011;6604;52.484;13.330;2022-09-09T11:53:25;2.40;;;1.20;;
13075;SDS011;6604;52.484;13.330;2022-09-09T11:56:06;2.17;;;1.47;;
13075;SDS011;6604;52.484;13.330;2022-09-09T11:58:40;2.10;;;1.30;;
13075;SDS011;6604;52.484;13.330;2022-09-09T12:01:14;2.83;;;1.50;;
13075;SDS011;6604;52.484;13.330;2022-09-09T12:03:41;2.50;;;1.10;;
13075;SDS011;6604;52.484;13.330;2022-09-09T12:06:11;2.77;;;1.60;;
13075;SDS011;6604;52.484;13.330;2022-09-09T12:08:40;5.67;;;1.20;;
13075;SDS011;6604;52.484;13.330;2022-09-09T12:11:07;5.20;;;1.17;;
13075;SDS011;6604;52.484;13.330;2022-09-09T12:13:34;3.13;;;1.50;;
13075;SDS011;6604;52.484;13.330;2022-09-09T12:16:01;2.13;;;1.37;;
13075;SDS011;6604;52.484;13.330;2022-09-09T12:18:32;2.20;;;1.20;;
13075;SDS011;6604;52.484;13.330;2022-09-09T12:21:01;2.70;;;1.10;;
13075;SDS011;6604;52.484;13.330;2022-09-09T12:23:39;4.10;;;1.60;;
13075;SDS011;6604;52.484;13.330;2022-09-09T12:26:16;2.53;;;1.47;;
13075;SDS011;6604;52.484;13.330;2022-09-09T12:28:49;3.67;;;1.30;;
13075;SDS011;6604;52.484;13.330;2022-09-09T12:31:20;1.80;;;1.30;;
13075;SDS011;6604;52.484;13.330;2022-09-09T12:33:49;2.03;;;1.10;;
13075;SDS011;6604;52.484;13.330;2022-09-09T12:36:18;3.47;;;1.07;;
13075;SDS011;6604;52.484;13.330;2022-09-09T12:38:46;9.53;;;1.57;;
13075;SDS011;6604;52.484;13.330;2022-09-09T12:41:19;2.13;;;1.10;;
13075;SDS011;6604;52.484;13.330;2022-09-09T12:43:45;2.57;;;1.13;;
13075;SDS011;6604;52.484;13.330;2022-09-09T12:46:14;2.83;;;1.30;;
13075;SDS011;6604;52.484;13.330;2022-09-09T12:48:45;2.53;;;1.00;;
13075;SDS011;6604;52.484;13.330;2022-09-09T12:51:16;3.37;;;1.40;;
13075;SDS011;6604;52.484;13.330;2022-09-09T12:53:44;2.83;;;1.63;;
13075;SDS011;6604;52.484;13.330;2022-09-09T12:56:19;3.40;;;1.60;;
13075;SDS011;6604;52.484;13.330;2022-09-09T12:58:46;4.67;;;1.90;;
13075;SDS011;6604;52.484;13.330;2022-09-09T13:01:18;2.90;;;1.53;;
13075;SDS011;6604;52.484;13.330;2022-09-09T13:03:46;3.43;;;1.63;;
13075;SDS011;6604;52.484;13.330;2022-09-09T13:06:16;3.20;;;1.40;;
13075;SDS011;6604;52.484;13.330;2022-09-09T13:08:44;3.77;;;1.80;;
13075;SDS011;6604;52.484;13.330;2022-09-09T13:11:12;2.50;;;1.27;;
13075;SDS011;6604;52.484;13.330;2022-09-09T13:13:42;4.17;;;1.50;;
13075;SDS011;6604;52.484;13.330;2022-09-09T13:16:18;1.93;;;1.20;;
13075;SDS011;6604;52.484;13.330;2022-09-09T13:18:45;2.13;;;1.20;;
13075;SDS011;6604;52.484;13.330;2022-09-09T13:21:14;4.40;;;1.23;;
13075;SDS011;6604;52.484;13.330;2022-09-09T13:23:41;1.60;;;1.10;;
13075;SDS011;6604;52.484;13.330;2022-09-09T13:26:19;2.97;;;1.20;;
13075;SDS011;6604;52.484;13.330;2022-09-09T13:28:50;4.20;;;1.37;;
13075;SDS011;6604;52.484;13.330;2022-09-09T13:31:22;2.83;;;1.30;;
13075;SDS011;6604;52.484;13.330;2022-09-09T13:33:49;3.17;;;1.30;;
13075;SDS011;6604;52.484;13.330;2022-09-09T13:36:26;3.17;;;1.30;;
13075;SDS011;6604;52.484;13.330;2022-09-09T13:38:53;2.63;;;1.30;;
13075;SDS011;6604;52.484;13.330;2022-09-09T13:41:21;4.33;;;1.50;;
13075;SDS011;6604;52.484;13.330;2022-09-09T13:43:50;1.53;;;1.43;;
13075;SDS011;6604;52.484;13.330;2022-09-09T13:46:28;2.17;;;1.40;;
13075;SDS011;6604;52.484;13.330;2022-09-09T13:48:56;3.83;;;1.30;;
13075;SDS011;6604;52.484;13.330;2022-09-09T13:51:28;3.67;;;1.20;;
13075;SDS011;6604;52.484;13.330;2022-09-09T13:53:55;4.10;;;1.80;;
13075;SDS011;6604;52.484;13.330;2022-09-09T13:56:22;3.70;;;1.40;;
13075;SDS011;6604;52.484;13.330;2022-09-09T13:58:50;5.07;;;1.80;;
13075;SDS011;6604;52.484;13.330;2022-09-09T14:01:16;10.90;;;8.03;;
13075;SDS011;6604;52.484;13.330;2022-09-09T14:03:43;4.40;;;3.30;;
13075;SDS011;6604;52.484;13.330;2022-09-09T14:06:10;2.80;;;2.27;;
13075;SDS011;6604;52.484;13.330;2022-09-09T14:08:37;4.40;;;1.93;;
13075;SDS011;6604;52.484;13.330;2022-09-09T14:11:03;4.37;;;1.57;;
13075;SDS011;6604;52.484;13.330;2022-09-09T14:13:30;2.90;;;1.20;;
13075;SDS011;6604;52.484;13.330;2022-09-09T14:15:58;2.13;;;1.60;;
13075;SDS011;6604;52.484;13.330;2022-09-09T14:18:24;1.67;;;1.13;;
13075;SDS011;6604;52.484;13.330;2022-09-09T14:20:50;4.53;;;1.20;;
13075;SDS011;6604;52.484;13.330;2022-09-09T14:23:17;2.17;;;1.30;;
13075;SDS011;6604;52.484;13.330;2022-09-09T14:25:44;3.77;;;1.30;;
13075;SDS011;6604;52.484;13.330;2022-09-09T14:28:11;2.67;;;1.13;;
13075;SDS011;6604;52.484;13.330;2022-09-09T14:30:38;2.73;;;1.17;;
13075;SDS011;6604;52.484;13.330;2022-09-09T14:33:06;5.03;;;1.23;;
13075;SDS011;6604;52.484;13.330;2022-09-09T14:35:33;1.60;;;1.03;;
13075;SDS011;6604;52.484;13.330;2022-09-09T14:38:01;1.67;;;0.90;;
13075;SDS011;6604;52.484;13.330;2022-09-09T14:40:27;2.70;;;1.23;;
13075;SDS011;6604;52.484;13.330;2022-09-09T14:42:54;4.90;;;1.30;;
13075;SDS011;6604;52.484;13.330;2022-09-09T14:45:21;5.70;;;1.60;;
13075;SDS011;6604;52.484;13.330;2022-09-09T14:47:49;2.20;;;1.13;;
13075;SDS011;6604;52.484;13.330;2022-09-09T14:50:17;4.53;;;1.53;;
13075;SDS011;6604;52.484;13.330;2022-09-09T14:52:44;2.63;;;1.30;;
13075;SDS011;6604;52.484;13.330;2022-09-09T14:55:10;3.33;;;1.57;;
13075;SDS011;6604;52.484;13.330;2022-09-09T14:57:36;5.97;;;1.80;;
13075;SDS011;6604;52.484;13.330;2022-09-09T15:00:04;3.10;;;1.50;;
13075;SDS011;6604;52.484;13.330;2022-09-09T15:02:31;1.73;;;1.20;;
13075;SDS011;6604;52.484;13.330;2022-09-09T15:04:58;5.80;;;1.30;;
13075;SDS011;6604;52.484;13.330;2022-09-09T15:07:25;4.87;;;1.43;;
13075;SDS011;6604;52.484;13.330;2022-09-09T15:09:53;3.77;;;1.80;;
13075;SDS011;6604;52.484;13.330;2022-09-09T15:12:19;2.97;;;1.60;;
13075;SDS011;6604;52.484;13.330;2022-09-09T15:14:46;3.60;;;1.40;;
13075;SDS011;6604;52.484;13.330;2022-09-09T15:17:13;3.80;;;2.10;;
13075;SDS011;6604;52.484;13.330;2022-09-09T15:19:39;2.93;;;1.60;;
13075;SDS011;6604;52.484;13.330;2022-09-09T15:22:07;3.03;;;1.50;;
13075;SDS011;6604;52.484;13.330;2022-09-09T15:24:35;3.20;;;1.60;;
13075;SDS011;6604;52.484;13.330;2022-09-09T15:27:01;2.83;;;1.20;;
13075;SDS011;6604;52.484;13.330;2022-09-09T15:29:28;1.60;;;1.37;;
13075;SDS011;6604;52.484;13.330;2022-09-09T15:31:54;4.37;;;1.50;;
13075;SDS011;6604;52.484;13.330;2022-09-09T15:34:21;4.20;;;1.60;;
13075;SDS011;6604;52.484;13.330;2022-09-09T15:36:48;4.17;;;1.27;;
13075;SDS011;6604;52.484;13.330;2022-09-09T15:39:15;4.27;;;1.43;;
13075;SDS011;6604;52.484;13.330;2022-09-09T15:41:44;4.03;;;1.40;;
13075;SDS011;6604;52.484;13.330;2022-09-09T15:44:11;3.47;;;1.60;;
13075;SDS011;6604;52.484;13.330;2022-09-09T15:46:38;2.73;;;1.40;;
13075;SDS011;6604;52.484;13.330;2022-09-09T15:49:05;2.07;;;1.00;;
13075;SDS011;6604;52.484;13.330;2022-09-09T15:51:32;3.53;;;1.17;;
13075;SDS011;6604;52.484;13.330;2022-09-09T15:53:58;2.00;;;1.70;;
13075;SDS011;6604;52.484;13.330;2022-09-09T15:56:25;2.30;;;1.40;;
13075;SDS011;6604;52.484;13.330;2022-09-09T15:58:53;1.80;;;1.10;;
13075;SDS011;6604;52.484;13.330;2022-09-09T16:01:21;2.30;;;1.00;;
13075;SDS011;6604;52.484;13.330;2022-09-09T16:03:47;1.47;;;1.20;;
13075;SDS011;6604;52.484;13.330;2022-09-09T16:06:15;2.57;;;0.90;;
13075;SDS011;6604;52.484;13.330;2022-09-09T16:08:44;3.40;;;1.30;;
13075;SDS011;6604;52.484;13.330;2022-09-09T16:11:12;2.20;;;1.10;;
13075;SDS011;6604;52.484;13.330;2022-09-09T16:13:39;3.57;;;1.40;;
13075;SDS011;6604;52.484;13.330;2022-09-09T16:16:08;2.23;;;1.20;;
13075;SDS011;6604;52.484;13.330;2022-09-09T16:18:35;3.93;;;1.10;;
13075;SDS011;6604;52.484;13.330;2022-09-09T16:21:02;2.30;;;1.27;;
13075;SDS011;6604;52.484;13.330;2022-09-09T16:23:30;3.37;;;1.50;;
13075;SDS011;6604;52.484;13.330;2022-09-09T16:25:56;2.37;;;1.30;;
13075;SDS011;6604;52.484;13.330;2022-09-09T16:28:23;4.37;;;2.80;;
13075;SDS011;6604;52.484;13.330;2022-09-09T16:30:49;4.70;;;2.40;;
13075;SDS011;6604;52.484;13.330;2022-09-09T16:33:17;3.83;;;1.93;;
13075;SDS011;6604;52.484;13.330;2022-09-09T16:35:44;4.07;;;1.90;;
13075;SDS011;6604;52.484;13.330;2022-09-09T16:38:10;6.23;;;3.27;;
13075;SDS011;6604;52.484;13.330;2022-09-09T16:40:36;2.80;;;1.60;;
13075;SDS011;6604;52.484;13.330;2022-09-09T16:43:03;3.10;;;1.50;;
13075;SDS011;6604;52.484;13.330;2022-09-09T16:45:30;3.90;;;1.53;;
13075;SDS011;6604;52.484;13.330;2022-09-09T16:47:57;2.73;;;1.33;;
13075;SDS011;6604;52.484;13.330;2022-09-09T16:50:25;3.73;;;1.50;;
13075;SDS011;6604;52.484;13.330;2022-09-09T16:52:51;3.03;;;1.60;;
13075;SDS011;6604;52.484;13.330;2022-09-09T16:55:18;3.80;;;1.60;;
13075;SDS011;6604;52.484;13.330;2022-09-09T16:57:45;3.97;;;1.87;;
13075;SDS011;6604;52.484;13.330;2022-09-09T17:00:14;2.60;;;1.40;;
13075;SDS011;6604;52.484;13.330;2022-09-09T17:02:41;2.93;;;1.70;;
13075;SDS011;6604;52.484;13.330;2022-09-09T17:05:08;5.87;;;1.87;;
13075;SDS011;6604;52.484;13.330;2022-09-09T17:07:35;3.53;;;1.30;;
13075;SDS011;6604;52.484;13.330;2022-09-09T17:10:02;3.57;;;1.33;;
13075;SDS011;6604;52.484;13.330;2022-09-09T17:12:29;3.57;;;1.30;;
13075;SDS011;6604;52.484;13.330;2022-09-09T17:14:55;3.13;;;1.40;;
13075;SDS011;6604;52.484;13.330;2022-09-09T17:17:22;6.00;;;1.50;;
13075;SDS011;6604;52.484;13.330;2022-09-09T17:19:48;1.97;;;1.33;;
13075;SDS011;6604;52.484;13.330;2022-09-09T17:22:15;2.47;;;1.50;;
13075;SDS011;6604;52.484;13.330;2022-09-09T17:24:43;1.67;;;1.20;;
13075;SDS011;6604;52.484;13.330;2022-09-09T17:27:09;3.87;;;1.70;;
13075;SDS011;6604;52.484;13.330;2022-09-09T17:29:36;1.70;;;1.30;;
13075;SDS011;6604;52.484;13.330;2022-09-09T17:32:03;4.10;;;1.50;;
13075;SDS011;6604;52.484;13.330;2022-09-09T17:34:30;1.43;;;1.30;;
13075;SDS011;6604;52.484;13.330;2022-09-09T17:36:56;3.03;;;1.73;;
13075;SDS011;6604;52.484;13.330;2022-09-09T17:39:23;2.67;;;1.43;;
13075;SDS011;6604;52.484;13.330;2022-09-09T17:41:51;2.87;;;1.50;;
13075;SDS011;6604;52.484;13.330;2022-09-09T17:44:19;2.07;;;1.63;;
13075;SDS011;6604;52.484;13.330;2022-09-09T17:46:46;2.23;;;1.63;;
13075;SDS011;6604;52.484;13.330;2022-09-09T17:49:13;3.23;;;1.83;;
13075;SDS011;6604;52.484;13.330;2022-09-09T17:51:40;2.83;;;1.87;;
13075;SDS011;6604;52.484;13.330;2022-09-09T17:54:08;2.57;;;2.20;;
13075;SDS011;6604;52.484;13.330;2022-09-09T17:56:36;2.87;;;2.00;;
13075;SDS011;6604;52.484;13.330;2022-09-09T17:59:04;3.70;;;1.73;;
13075;SDS011;6604;52.484;13.330;2022-09-09T18:01:32;4.10;;;1.43;;
13075;SDS011;6604;52.484;13.330;2022-09-09T18:04:00;3.00;;;1.93;;
13075;SDS011;6604;52.484;13.330;2022-09-09T18:06:27;4.10;;;1.50;;
13075;SDS011;6604;52.484;13.330;2022-09-09T18:08:55;2.20;;;1.40;;
13075;SDS011;6604;52.484;13.330;2022-09-09T18:11:23;2.63;;;1.40;;
13075;SDS011;6604;52.484;13.330;2022-09-09T18:13:51;3.23;;;1.50;;
13075;SDS011;6604;52.484;13.330;2022-09-09T18:16:19;4.10;;;1.63;;
13075;SDS011;6604;52.484;13.330;2022-09-09T18:18:46;7.27;;;1.50;;
13075;SDS011;6604;52.484;13.330;2022-09-09T18:21:14;2.87;;;1.80;;
13075;SDS011;6604;52.484;13.330;2022-09-09T18:23:42;2.67;;;1.40;;
13075;SDS011;6604;52.484;13.330;2022-09-09T18:26:11;1.47;;;1.20;;
13075;SDS011;6604;52.484;13.330;2022-09-09T18:28:38;4.00;;;1.63;;
13075;SDS011;6604;52.484;13.330;2022-09-09T18:31:05;1.50;;;1.40;;
13075;SDS011;6604;52.484;13.330;2022-09-09T18:33:35;1.70;;;1.27;;
13075;SDS011;6604;52.484;13.330;2022-09-09T18:36:06;2.23;;;1.33;;
13075;SDS011;6604;52.484;13.330;2022-09-09T18:38:32;2.43;;;1.30;;
13075;SDS011;6604;52.484;13.330;2022-09-09T18:40:59;1.60;;;1.50;;
13075;SDS011;6604;52.484;13.330;2022-09-09T18:43:27;1.70;;;1.30;;
13075;SDS011;6604;52.484;13.330;2022-09-09T18:45:53;2.97;;;1.27;;
13075;SDS011;6604;52.484;13.330;2022-09-09T18:48:20;2.70;;;1.30;;
13075;SDS011;6604;52.484;13.330;2022-09-09T18:50:48;1.83;;;1.20;;
13075;SDS011;6604;52.484;13.330;2022-09-09T18:53:14;1.43;;;1.20;;
13075;SDS011;6604;52.484;13.330;2022-09-09T18:55:40;2.47;;;1.33;;
13075;SDS011;6604;52.484;13.330;2022-09-09T18:58:07;1.50;;;1.23;;
13075;SDS011;6604;52.484;13.330;2022-09-09T19:00:34;2.97;;;1.40;;
13075;SDS011;6604;52.484;13.330;2022-09-09T19:03:02;2.33;;;1.27;;
13075;SDS011;6604;52.484;13.330;2022-09-09T19:05:29;1.63;;;1.23;;
13075;SDS011;6604;52.484;13.330;2022-09-09T19:07:57;1.80;;;1.13;;
13075;SDS011;6604;52.484;13.330;2022-09-09T19:10:23;4.10;;;1.33;;
13075;SDS011;6604;52.484;13.330;2022-09-09T19:12:50;2.70;;;1.20;;
13075;SDS011;6604;52.484;13.330;2022-09-09T19:15:16;1.30;;;1.20;;
13075;SDS011;6604;52.484;13.330;2022-09-09T19:17:43;2.43;;;1.00;;
13075;SDS011;6604;52.484;13.330;2022-09-09T19:20:09;1.20;;;1.13;;
13075;SDS011;6604;52.484;13.330;2022-09-09T19:22:35;3.63;;;1.30;;
13075;SDS011;6604;52.484;13.330;2022-09-09T19:25:03;1.07;;;0.93;;
13075;SDS011;6604;52.484;13.330;2022-09-09T19:27:31;2.63;;;1.00;;
13075;SDS011;6604;52.484;13.330;2022-09-09T19:29:57;2.90;;;1.27;;
13075;SDS011;6604;52.484;13.330;2022-09-09T19:32:24;2.63;;;1.30;;
13075;SDS011;6604;52.484;13.330;2022-09-09T19:34:50;2.17;;;1.00;;
13075;SDS011;6604;52.484;13.330;2022-09-09T19:37:16;1.40;;;1.30;;
13075;SDS011;6604;52.484;13.330;2022-09-09T19:39:43;2.43;;;1.07;;
13075;SDS011;6604;52.484;13.330;2022-09-09T19:42:11;2.60;;;1.17;;
13075;SDS011;6604;52.484;13.330;2022-09-09T19:44:37;1.20;;;1.10;;
13075;SDS011;6604;52.484;13.330;2022-09-09T19:47:04;1.40;;;1.13;;
13075;SDS011;6604;52.484;13.330;2022-09-09T19:49:31;1.43;;;0.80;;
13075;SDS011;6604;52.484;13.330;2022-09-09T19:51:58;3.67;;;1.20;;
13075;SDS011;6604;52.484;13.330;2022-09-09T19:54:24;1.80;;;0.93;;
13075;SDS011;6604;52.484;13.330;2022-09-09T19:56:51;2.60;;;1.23;;
13075;SDS011;6604;52.484;13.330;2022-09-09T19:59:20;2.03;;;1.10;;
13075;SDS011;6604;52.484;13.330;2022-09-09T20:01:47;1.33;;;1.20;;
13075;SDS011;6604;52.484;13.330;2022-09-09T20:04:13;0.80;;;0.80;;
13075;SDS011;6604;52.484;13.330;2022-09-09T20:06:41;2.03;;;1.10;;
13075;SDS011;6604;52.484;13.330;2022-09-09T20:09:09;1.37;;;1.27;;
13075;SDS011;6604;52.484;13.330;2022-09-09T20:11:37;1.57;;;1.17;;
13075;SDS011;6604;52.484;13.330;2022-09-09T20:14:03;1.83;;;0.93;;
13075;SDS011;6604;52.484;13.330;2022-09-09T20:16:31;1.30;;;1.20;;
13075;SDS011;6604;52.484;13.330;2022-09-09T20:18:58;2.47;;;1.10;;
13075;SDS011;6604;52.484;13.330;2022-09-09T20:21:27;1.30;;;1.17;;
13075;SDS011;6604;52.484;13.330;2022-09-09T20:23:53;3.43;;;1.00;;
13075;SDS011;6604;52.484;13.330;2022-09-09T20:26:21;2.90;;;1.50;;
13075;SDS011;6604;52.484;13.330;2022-09-09T20:28:50;2.43;;;1.17;;
13075;SDS011;6604;52.484;13.330;2022-09-09T20:31:17;3.67;;;1.50;;
13075;SDS011;6604;52.484;13.330;2022-09-09T20:33:46;1.70;;;1.10;;
13075;SDS011;6604;52.484;13.330;2022-09-09T20:36:13;1.13;;;0.90;;
13075;SDS011;6604;52.484;13.330;2022-09-09T20:38:40;3.87;;;1.20;;
13075;SDS011;6604;52.484;13.330;2022-09-09T20:41:06;1.27;;;1.13;;
13075;SDS011;6604;52.484;13.330;2022-09-09T20:43:38;2.10;;;1.10;;
13075;SDS011;6604;52.484;13.330;2022-09-09T20:46:04;1.70;;;1.10;;
13075;SDS011;6604;52.484;13.330;2022-09-09T20:48:31;1.40;;;1.30;;
13075;SDS011;6604;52.484;13.330;2022-09-09T20:51:02;3.27;;;1.30;;
13075;SDS011;6604;52.484;13.330;2022-09-09T20:53:29;1.13;;;1.07;;
13075;SDS011;6604;52.484;13.330;2022-09-09T20:55:57;2.13;;;1.30;;
13075;SDS011;6604;52.484;13.330;2022-09-09T20:58:24;2.27;;;1.30;;
13075;SDS011;6604;52.484;13.330;2022-09-09T21:00:50;2.13;;;1.43;;
13075;SDS011;6604;52.484;13.330;2022-09-09T21:03:17;3.07;;;1.40;;
13075;SDS011;6604;52.484;13.330;2022-09-09T21:05:44;3.80;;;1.70;;
13075;SDS011;6604;52.484;13.330;2022-09-09T21:08:13;2.27;;;1.40;;
13075;SDS011;6604;52.484;13.330;2022-09-09T21:10:42;2.03;;;1.40;;
13075;SDS011;6604;52.484;13.330;2022-09-09T21:13:09;3.87;;;1.40;;
13075;SDS011;6604;52.484;13.330;2022-09-09T21:15:36;1.57;;;1.37;;
13075;SDS011;6604;52.484;13.330;2022-09-09T21:18:03;2.47;;;1.40;;
13075;SDS011;6604;52.484;13.330;2022-09-09T21:20:36;1.30;;;1.20;;
13075;SDS011;6604;52.484;13.330;2022-09-09T21:23:02;2.00;;;1.40;;
13075;SDS011;6604;52.484;13.330;2022-09-09T21:25:30;2.13;;;1.30;;
13075;SDS011;6604;52.484;13.330;2022-09-09T21:27:56;4.00;;;1.40;;
13075;SDS011;6604;52.484;13.330;2022-09-09T21:30:23;1.63;;;1.20;;
13075;SDS011;6604;52.484;13.330;2022-09-09T21:32:49;2.83;;;1.33;;
13075;SDS011;6604;52.484;13.330;2022-09-09T21:35:16;2.27;;;1.30;;
13075;SDS011;6604;52.484;13.330;2022-09-09T21:37:43;3.60;;;1.70;;
13075;SDS011;6604;52.484;13.330;2022-09-09T21:40:09;3.47;;;1.50;;
13075;SDS011;6604;52.484;13.330;2022-09-09T21:42:37;1.37;;;1.27;;
13075;SDS011;6604;52.484;13.330;2022-09-09T21:45:04;1.33;;;1.20;;
13075;SDS011;6604;52.484;13.330;2022-09-09T21:47:31;1.27;;;1.10;;
13075;SDS011;6604;52.484;13.330;2022-09-09T21:49:57;1.20;;;1.10;;
13075;SDS011;6604;52.484;13.330;2022-09-09T21:52:25;2.50;;;1.40;;
13075;SDS011;6604;52.484;13.330;2022-09-09T21:54:51;7.23;;;1.53;;
13075;SDS011;6604;52.484;13.330;2022-09-09T21:57:18;2.10;;;1.33;;
13075;SDS011;6604;52.484;13.330;2022-09-09T21:59:46;2.87;;;1.50;;
13075;SDS011;6604;52.484;13.330;2022-09-09T22:02:12;1.83;;;1.13;;
13075;SDS011;6604;52.484;13.330;2022-09-09T22:04:40;1.37;;;1.13;;
13075;SDS011;6604;52.484;13.330;2022-09-09T22:07:07;3.50;;;1.33;;
13075;SDS011;6604;52.484;13.330;2022-09-09T22:09:33;1.33;;;1.23;;
13075;SDS011;6604;52.484;13.330;2022-09-09T22:12:00;3.67;;;1.30;;
13075;SDS011;6604;52.484;13.330;2022-09-09T22:14:27;2.43;;;1.23;;
13075;SDS011;6604;52.484;13.330;2022-09-09T22:16:55;1.63;;;1.27;;
13075;SDS011;6604;52.484;13.330;2022-09-09T22:19:22;1.80;;;1.30;;
13075;SDS011;6604;52.484;13.330;2022-09-09T22:21:52;2.03;;;1.40;;
13075;SDS011;6604;52.484;13.330;2022-09-09T22:24:19;2.43;;;1.40;;
13075;SDS011;6604;52.484;13.330;2022-09-09T22:26:46;1.73;;;1.20;;
13075;SDS011;6604;52.484;13.330;2022-09-09T22:29:12;1.83;;;1.20;;
13075;SDS011;6604;52.484;13.330;2022-09-09T22:31:39;1.60;;;1.40;;
13075;SDS011;6604;52.484;13.330;2022-09-09T22:34:07;2.57;;;1.57;;
13075;SDS011;6604;52.484;13.330;2022-09-09T22:36:34;5.43;;;1.60;;
13075;SDS011;6604;52.484;13.330;2022-09-09T22:39:02;1.93;;;1.80;;
13075;SDS011;6604;52.484;13.330;2022-09-09T22:41:28;3.30;;;1.90;;